createdAt,value
2019-04-26T00:01:32.673Z,30.00
2019-04-26T00:04:01.565Z,39.90
2019-04-26T00:06:30.371Z,42.83
2019-04-26T00:09:00.664Z,40.40
2019-04-26T00:11:40.020Z,35.80
2019-04-26T00:14:25.398Z,41.00
2019-04-26T00:16:58.391Z,48.50
2019-04-26T00:19:27.409Z,40.57
2019-04-26T00:21:56.517Z,40.67
2019-04-26T00:24:28.274Z,34.47
2019-04-26T00:26:55.857Z,38.63
2019-04-26T00:29:24.484Z,47.13
2019-04-26T00:31:53.225Z,58.10
2019-04-26T00:34:21.869Z,50.07
2019-04-26T00:36:50.443Z,46.83
2019-04-26T00:39:18.945Z,40.53
2019-04-26T00:41:47.876Z,42.60
2019-04-26T00:44:16.637Z,44.57
2019-04-26T00:46:48.060Z,43.70
2019-04-26T00:49:17.588Z,40.57
2019-04-26T00:51:47.035Z,38.87
2019-04-26T00:54:16.065Z,51.37
2019-04-26T00:56:44.840Z,36.70
2019-04-26T00:59:14.949Z,43.33
2019-04-26T01:01:45.313Z,42.00
2019-04-26T01:04:14.558Z,38.83
2019-04-26T01:06:45.812Z,33.93
2019-04-26T01:09:15.932Z,41.33
2019-04-26T01:11:44.804Z,33.77
2019-04-26T01:14:13.428Z,42.70
2019-04-26T01:16:42.146Z,39.00
2019-04-26T01:19:13.611Z,36.13
2019-04-26T01:21:45.214Z,40.83
2019-04-26T01:24:14.942Z,31.40
2019-04-26T01:26:45.019Z,36.83
2019-04-26T01:29:17.165Z,49.07
2019-04-26T01:32:01.772Z,40.37
2019-04-26T01:34:31.313Z,35.17
2019-04-26T01:37:02.134Z,33.93
2019-04-26T01:39:32.260Z,31.43
2019-04-26T01:42:05.773Z,31.93
2019-04-26T01:44:55.357Z,34.23
2019-04-26T01:47:24.697Z,33.73
2019-04-26T01:49:53.942Z,41.77
2019-04-26T01:52:23.994Z,43.27
2019-04-26T01:54:52.823Z,30.57
2019-04-26T01:57:25.292Z,33.40
2019-04-26T01:59:57.897Z,35.97
2019-04-26T02:02:28.185Z,41.17
2019-04-26T02:05:02.201Z,42.83
2019-04-26T02:07:41.010Z,31.67
2019-04-26T02:10:17.600Z,45.10
2019-04-26T02:12:48.502Z,42.23
2019-04-26T02:15:20.157Z,42.53
2019-04-26T02:17:51.045Z,48.30
2019-04-26T02:20:48.560Z,43.97
2019-04-26T02:23:18.845Z,32.63
2019-04-26T02:25:47.886Z,33.17
2019-04-26T02:28:16.733Z,37.50
2019-04-26T02:30:45.642Z,32.07
2019-04-26T02:33:15.221Z,43.63
2019-04-26T02:35:43.961Z,36.30
2019-04-26T02:38:12.600Z,38.60
2019-04-26T02:40:41.441Z,40.73
2019-04-26T02:43:11.177Z,41.87
2019-04-26T02:46:05.131Z,42.60
2019-04-26T02:48:38.311Z,42.47
2019-04-26T02:51:18.766Z,38.60
2019-04-26T02:53:52.996Z,33.47
2019-04-26T02:56:28.217Z,44.97
2019-04-26T02:59:00.435Z,33.30
2019-04-26T03:01:31.812Z,40.23
2019-04-26T03:04:00.368Z,45.80
2019-04-26T03:06:32.765Z,47.23
2019-04-26T03:09:06.623Z,39.03
2019-04-26T03:11:40.952Z,47.47
2019-04-26T03:14:13.837Z,44.10
2019-04-26T03:16:58.574Z,42.13
2019-04-26T03:19:54.662Z,34.10
2019-04-26T03:22:42.837Z,46.03
2019-04-26T03:25:28.956Z,53.57
2019-04-26T03:28:37.623Z,37.30
2019-04-26T03:31:27.921Z,43.83
2019-04-26T03:34:22.673Z,44.67
2019-04-26T03:37:20.713Z,49.00
2019-04-26T03:40:02.756Z,46.33
2019-04-26T03:42:55.719Z,41.53
2019-04-26T03:45:44.189Z,42.97
2019-04-26T03:48:40.829Z,42.77
2019-04-26T03:51:29.369Z,58.07
2019-04-26T03:54:15.935Z,47.77
2019-04-26T03:56:49.134Z,37.93
2019-04-26T03:59:27.862Z,49.17
2019-04-26T04:02:17.198Z,49.07
2019-04-26T04:04:59.203Z,40.97
2019-04-26T04:07:39.529Z,47.20
2019-04-26T04:10:18.893Z,42.43
2019-04-26T04:12:59.577Z,44.20
2019-04-26T04:15:31.417Z,57.47
2019-04-26T04:18:07.419Z,49.67
2019-04-26T04:21:09.544Z,64.77
2019-04-26T04:23:42.772Z,43.83
2019-04-26T04:26:14.479Z,47.17
2019-04-26T04:29:04.382Z,50.53
2019-04-26T04:31:43.675Z,52.50
2019-04-26T04:34:33.255Z,59.47
2019-04-26T04:37:04.855Z,50.50
2019-04-26T04:39:36.393Z,51.17
2019-04-26T04:42:43.658Z,49.57
2019-04-26T04:45:42.524Z,49.77
2019-04-26T04:48:42.377Z,55.43
2019-04-26T04:51:44.866Z,52.30
2019-04-26T04:54:37.391Z,54.70
2019-04-26T04:57:14.716Z,48.17
2019-04-26T05:00:03.805Z,49.17
2019-04-26T05:02:39.920Z,61.00
2019-04-26T05:05:24.947Z,53.57
2019-04-26T05:08:08.557Z,47.90
2019-04-26T05:10:40.151Z,69.33
2019-04-26T05:13:23.905Z,48.03
2019-04-26T05:16:15.008Z,41.27
2019-04-26T05:19:26.726Z,41.10
2019-04-26T05:22:20.879Z,44.57
2019-04-26T05:25:12.145Z,42.43
2019-04-26T05:27:46.778Z,54.57
2019-04-26T05:30:22.879Z,43.53
2019-04-26T05:33:09.594Z,49.00
2019-04-26T05:36:10.099Z,49.80
2019-04-26T05:38:41.723Z,49.67
2019-04-26T05:41:35.862Z,50.80
2019-04-26T05:44:18.238Z,45.53
2019-04-26T05:47:22.336Z,40.10
2019-04-26T05:50:27.135Z,43.47
2019-04-26T05:53:03.300Z,45.50
2019-04-26T05:56:02.519Z,44.43
2019-04-26T05:58:39.946Z,56.83
2019-04-26T06:01:57.397Z,38.87
2019-04-26T06:04:30.581Z,41.80
2019-04-26T06:07:27.845Z,42.43
2019-04-26T06:10:06.786Z,30.20
2019-04-26T06:13:03.919Z,44.93
2019-04-26T06:16:02.434Z,37.47
2019-04-26T06:18:44.654Z,34.33
2019-04-26T06:21:31.240Z,47.97
2019-04-26T06:24:17.773Z,35.43
2019-04-26T06:27:11.003Z,46.90
2019-04-26T06:29:55.203Z,32.83
2019-04-26T06:32:38.849Z,32.67
2019-04-26T06:35:13.357Z,32.70
2019-04-26T06:38:07.660Z,46.23
2019-04-26T06:40:54.552Z,43.50
2019-04-26T06:43:27.613Z,42.13
2019-04-26T06:46:28.199Z,48.13
2019-04-26T06:49:26.704Z,46.90
2019-04-26T06:52:13.092Z,38.67
2019-04-26T06:55:13.517Z,44.00
2019-04-26T06:58:13.110Z,43.03
2019-04-26T07:01:10.588Z,48.23
2019-04-26T07:03:59.643Z,45.80
2019-04-26T07:06:47.996Z,39.53
2019-04-26T07:09:18.314Z,43.53
2019-04-26T07:12:17.224Z,41.27
2019-04-26T07:15:05.825Z,38.43
2019-04-26T07:17:46.564Z,49.70
2019-04-26T07:20:38.383Z,40.73
2019-04-26T07:23:35.685Z,43.97
2019-04-26T07:26:25.646Z,43.60
2019-04-26T07:29:03.128Z,55.87
2019-04-26T07:31:43.926Z,48.70
2019-04-26T07:34:34.615Z,45.23
2019-04-26T07:37:18.212Z,50.83
2019-04-26T07:40:12.161Z,52.37
2019-04-26T07:42:57.435Z,54.27
2019-04-26T07:46:03.017Z,43.60
2019-04-26T07:48:55.043Z,40.27
2019-04-26T07:51:55.237Z,49.23
2019-04-26T07:54:45.039Z,48.33
2019-04-26T07:57:40.996Z,52.57
2019-04-26T08:00:18.975Z,48.93
2019-04-26T08:03:05.504Z,37.57
2019-04-26T08:05:53.174Z,40.63
2019-04-26T08:08:24.735Z,53.50
2019-04-26T08:11:06.194Z,39.93
2019-04-26T08:13:37.892Z,40.73
2019-04-26T08:16:19.207Z,44.20
2019-04-26T08:18:52.481Z,48.97
2019-04-26T08:21:25.657Z,52.27
2019-04-26T08:24:01.086Z,45.33
2019-04-26T08:26:32.676Z,44.37
2019-04-26T08:29:06.496Z,58.67
2019-04-26T08:31:38.681Z,49.07
2019-04-26T08:34:12.364Z,47.47
2019-04-26T08:36:45.233Z,43.67
2019-04-26T08:39:32.475Z,50.50
2019-04-26T08:41:57.535Z,50.50
2019-04-26T08:44:34.448Z,39.30
2019-04-26T08:47:16.736Z,45.73
2019-04-26T08:49:47.904Z,49.93
2019-04-26T08:52:18.929Z,45.57
2019-04-26T08:54:53.563Z,55.60
2019-04-26T08:57:25.562Z,54.80
2019-04-26T08:59:56.780Z,49.10
2019-04-26T09:02:44.589Z,47.93
2019-04-26T09:05:20.294Z,52.23
2019-04-26T09:07:53.497Z,57.30
2019-04-26T09:10:25.106Z,57.17
2019-04-26T09:12:56.493Z,50.53
2019-04-26T09:15:44.747Z,58.93
2019-04-26T09:18:13.384Z,44.83
2019-04-26T09:20:42.879Z,58.23
2019-04-26T09:23:20.091Z,47.30
2019-04-26T09:25:59.309Z,47.03
2019-04-26T09:28:28.167Z,56.13
2019-04-26T09:31:19.747Z,46.30
2019-04-26T09:33:58.552Z,48.33
2019-04-26T09:36:27.194Z,53.17
2019-04-26T09:38:55.834Z,79.87
2019-04-26T09:41:26.502Z,60.60
2019-04-26T09:44:02.291Z,66.43
2019-04-26T09:46:52.763Z,50.63
2019-04-26T09:49:30.189Z,48.10
2019-04-26T09:51:58.939Z,61.33
2019-04-26T09:54:27.573Z,62.17
2019-04-26T09:56:56.214Z,63.47
2019-04-26T09:59:24.841Z,49.23
2019-04-26T10:01:55.386Z,56.97
2019-04-26T10:04:23.906Z,55.10
2019-04-26T10:06:52.540Z,54.97
2019-04-26T10:09:22.791Z,56.03
2019-04-26T10:11:53.169Z,47.90
2019-04-26T10:14:23.440Z,43.10
2019-04-26T10:17:02.579Z,44.47
2019-04-26T10:19:38.621Z,57.03
2019-04-26T10:22:07.303Z,66.27
2019-04-26T10:24:36.131Z,59.07
2019-04-26T10:27:05.024Z,51.73
2019-04-26T10:29:33.679Z,60.07
2019-04-26T10:32:02.473Z,58.00
2019-04-26T10:34:31.238Z,57.37
2019-04-26T10:37:01.658Z,58.80
2019-04-26T10:39:32.483Z,52.38
2019-04-26T10:42:00.705Z,68.62
2019-04-26T10:44:29.349Z,60.25
2019-04-26T10:46:59.882Z,51.53
2019-04-26T10:49:38.782Z,56.37
2019-04-26T10:52:11.934Z,51.53
2019-04-26T10:54:45.943Z,71.13
2019-04-26T10:57:15.194Z,54.67
2019-04-26T10:59:45.619Z,58.70
2019-04-26T11:02:16.713Z,64.27
2019-04-26T11:04:45.359Z,58.03
2019-04-26T11:07:14.167Z,60.73
2019-04-26T11:09:42.808Z,66.27
2019-04-26T11:12:14.737Z,52.20
2019-04-26T11:14:43.585Z,66.30
2019-04-26T11:17:16.186Z,70.97
2019-04-26T11:19:44.320Z,69.77
2019-04-26T11:22:13.130Z,58.47
2019-04-26T11:24:41.836Z,83.03
2019-04-26T11:27:11.242Z,67.43
2019-04-26T11:29:39.941Z,54.73
2019-04-26T11:32:09.177Z,70.33
2019-04-26T11:34:37.871Z,69.73
2019-04-26T11:37:06.683Z,76.07
2019-04-26T11:39:36.528Z,77.87
2019-04-26T11:42:07.974Z,59.00
2019-04-26T11:44:36.097Z,59.93
2019-04-26T11:47:07.718Z,64.67
2019-04-26T11:49:37.307Z,75.00
2019-04-26T11:52:05.762Z,61.87
2019-04-26T11:54:34.487Z,78.87
2019-04-26T11:57:03.213Z,60.83
2019-04-26T11:59:31.987Z,66.03
2019-04-26T12:02:00.608Z,67.10
2019-04-26T12:04:40.149Z,57.47
2019-04-26T12:07:16.508Z,62.13
2019-04-26T12:09:46.757Z,71.80
2019-04-26T12:12:15.384Z,69.00
2019-04-26T12:14:44.008Z,70.40
2019-04-26T12:17:12.649Z,61.23
2019-04-26T12:19:41.296Z,58.83
2019-04-26T12:22:10.070Z,59.67
2019-04-26T12:24:38.681Z,64.77
2019-04-26T12:27:10.215Z,67.03
2019-04-26T12:29:37.745Z,68.70
2019-04-26T12:32:06.491Z,79.43
2019-04-26T12:34:35.190Z,60.90
2019-04-26T12:37:03.935Z,76.03
2019-04-26T12:39:36.771Z,60.70
2019-04-26T12:42:04.302Z,76.50
2019-04-26T12:44:36.377Z,61.50
2019-04-26T12:47:09.613Z,59.53
2019-04-26T12:49:38.241Z,76.47
2019-04-26T12:52:07.099Z,66.07
2019-04-26T12:54:38.964Z,79.10
2019-04-26T12:57:07.041Z,77.23
2019-04-26T12:59:44.067Z,59.13
2019-04-26T13:02:06.390Z,64.03
2019-04-26T13:04:36.142Z,63.17
2019-04-26T13:07:22.685Z,63.43
2019-04-26T13:09:43.387Z,79.83
2019-04-26T13:12:13.657Z,58.23
2019-04-26T13:14:56.076Z,46.90
2019-04-26T13:17:26.343Z,52.17
2019-04-26T13:19:55.473Z,58.83
2019-04-26T13:22:24.222Z,72.57
2019-04-26T13:24:52.894Z,70.20
2019-04-26T13:27:21.412Z,70.27
2019-04-26T13:30:01.808Z,61.33
2019-04-26T13:32:20.396Z,54.90
2019-04-26T13:34:49.064Z,61.03
2019-04-26T13:37:17.678Z,62.33
2019-04-26T13:39:46.352Z,60.40
2019-04-26T13:42:17.415Z,64.63
2019-04-26T13:44:52.772Z,52.17
2019-04-26T13:47:39.462Z,59.07
2019-04-26T13:50:15.682Z,50.40
2019-04-26T13:52:44.300Z,65.43
2019-04-26T13:55:14.565Z,54.43
2019-04-26T13:57:44.571Z,54.00
2019-04-26T14:00:15.311Z,58.97
2019-04-26T14:02:44.021Z,65.47
2019-04-26T14:05:15.278Z,67.30
2019-04-26T14:07:43.122Z,64.73
2019-04-26T14:10:11.889Z,58.43
2019-04-26T14:12:40.575Z,61.17
2019-04-26T14:15:10.234Z,58.57
2019-04-26T14:17:38.956Z,68.17
2019-04-26T14:20:08.522Z,72.10
2019-04-26T14:22:40.997Z,54.00
2019-04-26T14:25:11.316Z,75.10
2019-04-26T14:27:49.896Z,59.13
2019-04-26T14:30:18.127Z,57.67
2019-04-26T14:32:46.791Z,66.20
2019-04-26T14:35:17.086Z,64.20
2019-04-26T14:37:49.805Z,64.30
2019-04-26T14:40:17.713Z,53.10
2019-04-26T14:42:48.557Z,46.73
2019-04-26T14:45:23.642Z,65.30
2019-04-26T14:47:47.893Z,64.00
2019-04-26T14:50:16.929Z,68.23
2019-04-26T14:52:45.583Z,69.87
2019-04-26T14:55:16.519Z,54.40
2019-04-26T14:57:46.767Z,54.43
2019-04-26T15:00:16.776Z,65.37
2019-04-26T15:03:03.413Z,57.83
2019-04-26T15:05:33.677Z,71.27
2019-04-26T15:08:03.888Z,62.00
2019-04-26T15:10:44.404Z,57.47
2019-04-26T15:13:17.236Z,60.60
2019-04-26T15:15:37.402Z,56.37
2019-04-26T15:18:06.336Z,48.73
2019-04-26T15:20:35.059Z,49.27
2019-04-26T15:23:03.700Z,70.60
2019-04-26T15:25:33.617Z,64.60
2019-04-26T15:28:02.572Z,53.07
2019-04-26T15:30:34.272Z,51.23
2019-04-26T15:33:03.086Z,54.63
2019-04-26T15:35:35.625Z,50.23
2019-04-26T15:38:02.527Z,56.53
2019-04-26T15:40:44.954Z,48.83
2019-04-26T15:43:24.417Z,47.40
2019-04-26T15:45:57.412Z,48.47
2019-04-26T15:48:36.896Z,51.07
2019-04-26T15:51:05.592Z,43.07
2019-04-26T15:53:34.221Z,38.53
2019-04-26T15:56:02.964Z,56.13
2019-04-26T15:58:31.599Z,55.90
2019-04-26T16:01:00.401Z,45.57
2019-04-26T16:03:29.096Z,54.67
2019-04-26T16:05:59.144Z,50.63
2019-04-26T16:08:28.109Z,54.57
2019-04-26T16:10:56.758Z,45.20
2019-04-26T16:13:25.410Z,53.70
2019-04-26T16:15:54.085Z,51.80
2019-04-26T16:18:22.725Z,43.53
2019-04-26T16:20:53.189Z,49.47
2019-04-26T16:23:22.387Z,51.70
2019-04-26T16:25:52.565Z,55.23
2019-04-26T16:28:31.030Z,37.17
2019-04-26T16:31:06.646Z,54.40
2019-04-26T16:33:36.277Z,44.93
2019-04-26T16:36:06.312Z,43.23
2019-04-26T16:38:35.920Z,55.97
2019-04-26T16:41:05.355Z,50.57
2019-04-26T16:43:40.029Z,43.97
2019-04-26T16:46:04.951Z,44.40
2019-04-26T16:48:33.630Z,54.97
2019-04-26T16:51:08.423Z,60.23
2019-04-26T16:53:46.445Z,55.70
2019-04-26T16:56:03.708Z,44.43
2019-04-26T16:58:38.141Z,51.80
2019-04-26T17:01:04.482Z,54.70
2019-04-26T17:03:38.191Z,54.97
2019-04-26T17:06:06.617Z,50.43
2019-04-26T17:08:34.052Z,47.60
2019-04-26T17:11:02.693Z,51.60
2019-04-26T17:13:34.768Z,37.63
2019-04-26T17:16:02.288Z,45.93
2019-04-26T17:18:32.333Z,44.50
2019-04-26T17:21:02.571Z,58.83
2019-04-26T17:23:35.922Z,49.83
2019-04-26T17:26:22.631Z,54.63
2019-04-26T17:28:52.461Z,39.93
2019-04-26T17:31:22.841Z,49.43
2019-04-26T17:33:51.501Z,44.57
2019-04-26T17:36:20.189Z,43.10
2019-04-26T17:38:50.420Z,45.40
2019-04-26T17:41:19.221Z,48.93
2019-04-26T17:43:52.070Z,50.60
2019-04-26T17:46:19.437Z,45.53
2019-04-26T17:48:50.706Z,45.73
2019-04-26T17:51:22.893Z,55.07
2019-04-26T17:53:56.123Z,41.40
2019-04-26T17:56:21.517Z,50.30
2019-04-26T17:58:54.246Z,57.10
2019-04-26T18:01:41.152Z,48.77
2019-04-26T18:03:55.587Z,42.90
2019-04-26T18:06:29.496Z,49.07
2019-04-26T18:08:54.726Z,50.07
2019-04-26T18:11:24.853Z,51.17
2019-04-26T18:13:53.482Z,57.97
2019-04-26T18:16:27.350Z,57.97
2019-04-26T18:18:57.208Z,57.50
2019-04-26T18:21:44.156Z,60.40
2019-04-26T18:24:13.272Z,46.70
2019-04-26T18:26:42.051Z,52.63
2019-04-26T18:29:10.724Z,54.37
2019-04-26T18:31:39.537Z,51.30
2019-04-26T18:34:08.170Z,41.40
2019-04-26T18:36:36.745Z,58.80
2019-04-26T18:39:07.951Z,49.27
2019-04-26T18:41:36.626Z,59.70
2019-04-26T18:44:06.190Z,53.63
2019-04-26T18:46:46.888Z,54.93
2019-04-26T18:49:17.564Z,54.53
2019-04-26T18:51:48.027Z,44.93
2019-04-26T18:54:17.816Z,48.03
2019-04-26T18:56:46.669Z,61.10
2019-04-26T18:59:15.648Z,54.53
2019-04-26T19:01:44.443Z,50.13
2019-04-26T19:04:15.455Z,51.97
2019-04-26T19:06:43.557Z,53.33
2019-04-26T19:09:12.524Z,59.40
2019-04-26T19:11:42.088Z,54.20
2019-04-26T19:14:16.012Z,47.63
2019-04-26T19:17:02.032Z,52.27
2019-04-26T19:19:44.864Z,49.70
2019-04-26T19:22:16.735Z,38.80
2019-04-26T19:24:43.978Z,40.57
2019-04-26T19:27:12.708Z,45.47
2019-04-26T19:29:43.271Z,59.97
2019-04-26T19:32:11.996Z,56.10
2019-04-26T19:34:42.138Z,55.90
2019-04-26T19:37:10.941Z,49.97
2019-04-26T19:39:39.600Z,50.40
2019-04-26T19:42:08.308Z,52.93
2019-04-26T19:44:36.940Z,47.13
2019-04-26T19:47:19.614Z,44.10
2019-04-26T19:49:54.085Z,58.50
2019-04-26T19:52:33.634Z,54.57
2019-04-26T19:55:18.288Z,49.70
2019-04-26T19:58:01.942Z,60.23
2019-04-26T20:00:32.188Z,54.33
2019-04-26T20:03:01.626Z,61.97
2019-04-26T20:05:31.982Z,60.70
2019-04-26T20:08:02.957Z,45.43
2019-04-26T20:10:34.556Z,53.57
2019-04-26T20:13:02.552Z,54.53
2019-04-26T20:15:31.894Z,46.80
2019-04-26T20:18:03.679Z,49.97
2019-04-26T20:20:32.806Z,45.40
2019-04-26T20:23:05.965Z,43.60
2019-04-26T20:25:31.759Z,56.17
2019-04-26T20:28:01.486Z,42.73
2019-04-26T20:30:35.122Z,71.87
2019-04-26T20:33:04.024Z,64.73
2019-04-26T20:35:32.668Z,61.10
2019-04-26T20:38:04.656Z,49.77
2019-04-26T20:40:31.705Z,50.20
2019-04-26T20:43:03.267Z,52.13
2019-04-26T20:45:39.878Z,50.63
2019-04-26T20:48:02.350Z,65.50
2019-04-26T20:50:35.157Z,45.40
2019-04-26T20:53:02.354Z,49.63
2019-04-26T20:55:34.495Z,51.37
2019-04-26T20:58:07.065Z,61.17
2019-04-26T21:00:36.449Z,50.53
2019-04-26T21:03:05.960Z,49.40
2019-04-26T21:05:45.762Z,44.03
2019-04-26T21:08:03.765Z,46.83
2019-04-26T21:10:32.531Z,43.67
2019-04-26T21:13:01.908Z,43.87
2019-04-26T21:15:32.183Z,41.20
2019-04-26T21:18:04.063Z,43.47
2019-04-26T21:20:34.492Z,45.63
2019-04-26T21:23:02.689Z,45.17
2019-04-26T21:25:42.846Z,54.80
2019-04-26T21:28:29.405Z,57.97
2019-04-26T21:30:59.620Z,55.40
2019-04-26T21:33:35.398Z,44.73
2019-04-26T21:36:05.933Z,55.70
2019-04-26T21:38:39.394Z,41.47
2019-04-26T21:41:14.012Z,57.90
2019-04-26T21:43:43.837Z,54.93
2019-04-26T21:46:18.496Z,50.57
2019-04-26T21:48:44.572Z,43.50
2019-04-26T21:51:16.061Z,57.53
2019-04-26T21:53:45.100Z,58.43
2019-04-26T21:56:14.834Z,50.17
2019-04-26T21:58:46.015Z,49.07
2019-04-26T22:01:18.997Z,36.33
2019-04-26T22:03:55.257Z,48.03
2019-04-26T22:06:19.985Z,39.93
2019-04-26T22:08:50.313Z,47.70
2019-04-26T22:11:19.922Z,51.30
2019-04-26T22:14:00.268Z,48.33
2019-04-26T22:16:48.893Z,53.07
2019-04-26T22:19:32.117Z,52.63
2019-04-26T22:22:04.249Z,52.90
2019-04-26T22:24:37.661Z,42.67
2019-04-26T22:27:06.302Z,43.57
2019-04-26T22:29:34.945Z,55.57
2019-04-26T22:32:03.825Z,43.90
2019-04-26T22:34:32.506Z,55.80
2019-04-26T22:37:07.193Z,41.20
2019-04-26T22:39:32.620Z,62.43
2019-04-26T22:42:02.808Z,49.47
2019-04-26T22:44:34.681Z,45.37
2019-04-26T22:47:21.527Z,60.20
2019-04-26T22:49:50.237Z,44.77
2019-04-26T22:52:18.876Z,46.20
2019-04-26T22:54:47.653Z,45.30
2019-04-26T22:57:16.668Z,40.60
2019-04-26T22:59:49.944Z,49.70
2019-04-26T23:02:18.570Z,51.57
2019-04-26T23:04:47.520Z,46.80
2019-04-26T23:07:18.518Z,37.23
2019-04-26T23:09:51.938Z,43.40
2019-04-26T23:12:28.122Z,50.53
2019-04-26T23:15:03.895Z,48.93
2019-04-26T23:17:36.844Z,43.10
2019-04-26T23:20:14.353Z,31.57
2019-04-26T23:22:43.039Z,50.97
2019-04-26T23:25:13.551Z,50.57
2019-04-26T23:27:43.569Z,47.10
2019-04-26T23:30:14.045Z,48.00
2019-04-26T23:32:43.438Z,48.37
2019-04-26T23:35:13.743Z,44.97
2019-04-26T23:37:42.509Z,45.77
2019-04-26T23:40:11.254Z,39.33
2019-04-26T23:42:39.893Z,43.17
2019-04-26T23:45:10.651Z,45.23
2019-04-26T23:47:39.144Z,44.10
2019-04-26T23:50:07.990Z,40.80
2019-04-26T23:52:36.628Z,47.63
2019-04-26T23:55:08.806Z,51.07
2019-04-26T23:57:36.533Z,54.03
